Time;durP1;ratioP1;P1;durP2;ratioP2;P2;SDS_P1;SDS_P2;PMS_P1;PMS_P2;Temp;Humidity;BMP_temperature;BMP_pressure;BME280_temperature;BME280_humidity;BME280_pressure;Samples;Min_cycle;Max_cycle;Signal;HPM_P1;HPM_P2
2022/07/14 00:02:08;;;;;;;;;;;15.70;99.90;;;;;;5052914;28;19916;-71
2022/07/14 00:04:34;;;;;;;;;;;15.70;99.90;;;;;;5053108;28;19912;-71
2022/07/14 00:07:00;;;;;;;;;;;15.70;99.90;;;;;;5052983;28;19917;-72
2022/07/14 00:09:25;;;;;;;;;;;15.70;99.90;;;;;;5053098;28;19913;-72
2022/07/14 00:11:51;;;;;;;;;;;15.70;99.90;;;;;;5034710;28;19924;-70
2022/07/14 00:14:16;;;;;;;;;;;15.80;99.90;;;;;;5034684;28;19931;-70
2022/07/14 00:16:42;;;;;;;;;;;15.80;99.90;;;;;;5052565;28;20265;-70
2022/07/14 00:19:07;;;;;;;;;;;15.80;99.90;;;;;;5034555;28;19909;-71
2022/07/14 00:21:33;;;;;;;;;;;15.70;99.90;;;;;;5034341;28;20274;-70
2022/07/14 00:23:58;;;;;;;;;;;15.70;99.90;;;;;;5052590;28;20025;-71
2022/07/14 00:26:24;;;;;;;;;;;15.70;99.90;;;;;;5052669;28;19909;-71
2022/07/14 00:28:49;;;;;;;;;;;15.70;99.90;;;;;;5052712;28;20015;-72
2022/07/14 00:31:15;;;;;;;;;;;15.70;99.90;;;;;;5052456;28;19958;-71
2022/07/14 00:33:40;;;;;;;;;;;15.70;99.90;;;;;;5034291;28;19929;-72
2022/07/14 00:36:07;;;;;;;;;;;15.80;99.90;;;;;;5052253;28;19997;-71
2022/07/14 00:38:32;;;;;;;;;;;15.70;99.90;;;;;;5034255;28;19917;-71
2022/07/14 00:40:58;;;;;;;;;;;15.80;99.90;;;;;;5052028;28;20280;-71
2022/07/14 00:43:23;;;;;;;;;;;15.80;99.90;;;;;;5052352;28;19924;-71
2022/07/14 00:45:49;;;;;;;;;;;15.70;99.90;;;;;;5034282;28;19909;-71
2022/07/14 00:48:16;;;;;;;;;;;15.70;99.90;;;;;;5052229;28;19944;-71
2022/07/14 00:50:43;;;;;;;;;;;15.80;99.90;;;;;;5051980;28;19928;-71
2022/07/14 00:53:09;;;;;;;;;;;15.80;99.90;;;;;;5034071;28;19920;-71
2022/07/14 00:55:35;;;;;;;;;;;15.70;99.90;;;;;;5051949;28;19916;-70
2022/07/14 00:58:01;;;;;;;;;;;15.80;99.90;;;;;;5051710;28;19921;-71
2022/07/14 01:00:26;;;;;;;;;;;15.70;99.90;;;;;;5051810;28;19916;-71
2022/07/14 01:02:52;;;;;;;;;;;15.80;99.90;;;;;;5052062;28;20403;-70
2022/07/14 01:05:18;;;;;;;;;;;15.70;99.90;;;;;;5052248;28;19956;-72
2022/07/14 01:07:44;;;;;;;;;;;15.70;99.90;;;;;;5051898;28;19979;-71
2022/07/14 01:10:10;;;;;;;;;;;15.70;99.90;;;;;;5051887;28;20368;-70
2022/07/14 01:12:35;;;;;;;;;;;15.70;99.90;;;;;;5051597;28;19940;-72
2022/07/14 01:15:01;;;;;;;;;;;15.70;99.90;;;;;;5050951;28;19913;-72
2022/07/14 01:17:27;;;;;;;;;;;15.60;99.90;;;;;;5051624;28;19920;-72
2022/07/14 01:19:53;;;;;;;;;;;15.60;99.90;;;;;;5033692;28;19974;-71
2022/07/14 01:22:18;;;;;;;;;;;15.50;99.90;;;;;;5051555;28;19917;-71
2022/07/14 01:24:45;;;;;;;;;;;15.60;99.90;;;;;;5051110;28;20381;-71
2022/07/14 01:27:11;;;;;;;;;;;15.50;99.90;;;;;;5033513;28;19917;-71
2022/07/14 01:29:37;;;;;;;;;;;15.60;99.90;;;;;;5051184;28;20411;-73
2022/07/14 01:32:03;;;;;;;;;;;15.60;99.90;;;;;;5051365;28;19967;-71
2022/07/14 01:34:29;;;;;;;;;;;15.60;99.90;;;;;;5051086;28;19952;-72
2022/07/14 01:36:54;;;;;;;;;;;15.60;99.90;;;;;;5051387;28;19921;-71
2022/07/14 01:39:20;;;;;;;;;;;15.70;99.90;;;;;;5051079;28;19975;-71
2022/07/14 01:41:46;;;;;;;;;;;15.70;99.90;;;;;;5032065;28;19921;-71
2022/07/14 01:44:11;;;;;;;;;;;15.60;99.90;;;;;;5032120;28;20323;-71
2022/07/14 01:46:37;;;;;;;;;;;15.60;99.90;;;;;;5050049;28;19920;-71
2022/07/14 01:49:03;;;;;;;;;;;15.60;99.90;;;;;;5050125;28;19917;-72
2022/07/14 01:51:29;;;;;;;;;;;15.50;99.90;;;;;;5032314;28;20329;-72
2022/07/14 01:53:54;;;;;;;;;;;15.60;99.90;;;;;;5031969;28;19923;-72
2022/07/14 01:56:21;;;;;;;;;;;15.60;99.90;;;;;;5050103;28;19919;-70
2022/07/14 01:58:46;;;;;;;;;;;15.60;99.90;;;;;;5050522;28;19913;-73
2022/07/14 02:03:57;;;;;;;;;;;15.50;99.90;;;;;;5050203;28;20403;-71
2022/07/14 02:06:23;;;;;;;;;;;15.50;99.90;;;;;;5032074;28;19908;-71
2022/07/14 02:08:49;;;;;;;;;;;15.50;99.90;;;;;;5032251;28;19916;-72
2022/07/14 02:13:58;;;;;;;;;;;15.50;99.90;;;;;;5049756;28;19924;-71
2022/07/14 02:16:24;;;;;;;;;;;15.40;99.90;;;;;;5049824;28;19917;-72
2022/07/14 02:18:50;;;;;;;;;;;15.40;99.90;;;;;;5050033;28;20011;-72
2022/07/14 02:21:15;;;;;;;;;;;15.50;99.90;;;;;;5049757;28;20004;-71
2022/07/14 02:23:41;;;;;;;;;;;15.40;99.90;;;;;;5049559;28;19920;-71
2022/07/14 02:26:10;;;;;;;;;;;15.30;99.90;;;;;;5030430;28;19924;-72
2022/07/14 02:28:36;;;;;;;;;;;15.40;99.90;;;;;;5031816;28;19913;-72
2022/07/14 02:31:01;;;;;;;;;;;15.40;99.90;;;;;;5031551;28;19969;-71
2022/07/14 02:33:27;;;;;;;;;;;15.30;99.90;;;;;;5049939;28;19917;-73
2022/07/14 02:35:52;;;;;;;;;;;15.30;99.90;;;;;;5049319;28;19982;-71
2022/07/14 02:38:18;;;;;;;;;;;15.30;99.90;;;;;;5031584;28;19928;-71
2022/07/14 02:40:43;;;;;;;;;;;15.30;99.90;;;;;;4960562;28;2029977;-71
2022/07/14 02:43:09;;;;;;;;;;;15.30;99.90;;;;;;5032416;28;19962;-71
2022/07/14 02:45:34;;;;;;;;;;;15.30;99.90;;;;;;5032288;28;19929;-71
2022/07/14 02:48:00;;;;;;;;;;;15.30;99.90;;;;;;5050427;28;19909;-71
2022/07/14 02:50:25;;;;;;;;;;;15.30;99.90;;;;;;5050607;28;20425;-71
2022/07/14 02:52:51;;;;;;;;;;;15.20;99.90;;;;;;5050178;28;19913;-71
2022/07/14 02:55:16;;;;;;;;;;;15.20;99.90;;;;;;5050137;28;19924;-71
2022/07/14 02:57:42;;;;;;;;;;;15.20;99.90;;;;;;5050456;28;20320;-71
2022/07/14 03:00:08;;;;;;;;;;;15.20;99.90;;;;;;5049983;28;19924;-71
2022/07/14 03:02:34;;;;;;;;;;;15.20;99.90;;;;;;5050481;28;19909;-71
2022/07/14 03:04:59;;;;;;;;;;;15.20;99.90;;;;;;5049971;28;20015;-72
2022/07/14 03:07:25;;;;;;;;;;;15.30;99.90;;;;;;5050154;28;19915;-70
2022/07/14 03:09:50;;;;;;;;;;;15.30;99.90;;;;;;5049997;28;20373;-71
2022/07/14 03:12:16;;;;;;;;;;;15.30;99.90;;;;;;5032029;28;19909;-72
2022/07/14 03:14:41;;;;;;;;;;;15.20;99.90;;;;;;5031957;28;20285;-71
2022/07/14 03:17:07;;;;;;;;;;;15.20;99.90;;;;;;5050084;28;19955;-71
2022/07/14 03:19:33;;;;;;;;;;;15.20;99.90;;;;;;5049990;28;19962;-72
2022/07/14 03:21:58;;;;;;;;;;;15.20;99.90;;;;;;5050229;28;19966;-71
2022/07/14 03:24:24;;;;;;;;;;;15.20;99.90;;;;;;5050233;28;20004;-71
2022/07/14 03:26:50;;;;;;;;;;;15.20;99.90;;;;;;5049665;28;19955;-71
2022/07/14 03:29:15;;;;;;;;;;;15.20;99.90;;;;;;5049729;28;19964;-71
2022/07/14 03:31:41;;;;;;;;;;;15.20;99.90;;;;;;5049618;28;19917;-71
2022/07/14 03:34:06;;;;;;;;;;;15.20;99.90;;;;;;5049599;28;20335;-71
2022/07/14 03:36:32;;;;;;;;;;;15.20;99.90;;;;;;5049537;28;19924;-71
2022/07/14 03:38:57;;;;;;;;;;;15.10;99.90;;;;;;5053419;28;19924;-72
2022/07/14 03:41:23;;;;;;;;;;;15.20;99.90;;;;;;5053089;28;20267;-71
2022/07/14 03:43:48;;;;;;;;;;;15.20;99.90;;;;;;5053727;28;20365;-71
2022/07/14 03:46:13;;;;;;;;;;;15.20;99.90;;;;;;5053037;28;19920;-71
2022/07/14 03:48:39;;;;;;;;;;;15.30;99.90;;;;;;5035591;28;19913;-73
2022/07/14 03:51:05;;;;;;;;;;;15.30;99.90;;;;;;5052965;28;19913;-70
2022/07/14 03:53:31;;;;;;;;;;;15.30;99.90;;;;;;5035409;28;20365;-71
2022/07/14 03:55:59;;;;;;;;;;;15.30;99.90;;;;;;5052790;28;19913;-70
2022/07/14 03:58:25;;;;;;;;;;;15.30;99.90;;;;;;5053211;28;20352;-70
2022/07/14 04:00:51;;;;;;;;;;;15.30;99.90;;;;;;5052716;28;19928;-70
2022/07/14 04:03:16;;;;;;;;;;;15.30;99.90;;;;;;5052747;28;19913;-70
2022/07/14 04:05:42;;;;;;;;;;;15.30;99.90;;;;;;5052700;28;19913;-71
2022/07/14 04:08:08;;;;;;;;;;;15.30;99.90;;;;;;5053177;28;19995;-71
2022/07/14 04:10:33;;;;;;;;;;;15.40;99.90;;;;;;5052914;28;20357;-73
2022/07/14 04:12:59;;;;;;;;;;;15.30;99.90;;;;;;5053007;28;19959;-71
2022/07/14 04:15:26;;;;;;;;;;;15.40;99.90;;;;;;5034305;28;19917;-73
2022/07/14 04:17:52;;;;;;;;;;;15.40;99.90;;;;;;5052763;28;19920;-73
2022/07/14 04:20:17;;;;;;;;;;;15.40;99.90;;;;;;5052636;28;20024;-71
2022/07/14 04:22:43;;;;;;;;;;;15.40;99.90;;;;;;5052659;28;19917;-72
2022/07/14 04:25:12;;;;;;;;;;;15.50;99.90;;;;;;5052382;28;19956;-72
2022/07/14 04:27:38;;;;;;;;;;;15.40;99.90;;;;;;5034557;28;19955;-71
2022/07/14 04:30:04;;;;;;;;;;;15.50;99.90;;;;;;5034435;28;19952;-71
2022/07/14 04:32:30;;;;;;;;;;;15.60;99.90;;;;;;5052595;28;19920;-70
2022/07/14 04:34:56;;;;;;;;;;;15.60;99.90;;;;;;5052223;28;19924;-70
2022/07/14 04:37:22;;;;;;;;;;;15.70;99.90;;;;;;5052166;28;19920;-70
2022/07/14 04:39:47;;;;;;;;;;;15.70;99.90;;;;;;5052219;28;20381;-71
2022/07/14 04:42:14;;;;;;;;;;;15.70;99.90;;;;;;5052263;28;20451;-72
2022/07/14 04:44:41;;;;;;;;;;;15.70;99.90;;;;;;5052135;28;19943;-73
2022/07/14 04:47:07;;;;;;;;;;;15.70;99.90;;;;;;5052159;28;20384;-73
2022/07/14 04:52:17;;;;;;;;;;;15.70;99.90;;;;;;5052174;28;19966;-71
2022/07/14 04:54:43;;;;;;;;;;;15.80;99.90;;;;;;5051855;28;20376;-71
2022/07/14 04:57:08;;;;;;;;;;;15.80;99.90;;;;;;5051763;28;19939;-71
2022/07/14 04:59:34;;;;;;;;;;;15.80;99.90;;;;;;5051854;28;19913;-71
2022/07/14 05:02:00;;;;;;;;;;;15.90;99.90;;;;;;5033717;28;19917;-72
2022/07/14 05:04:26;;;;;;;;;;;15.80;99.90;;;;;;5051666;28;20321;-71
2022/07/14 05:06:52;;;;;;;;;;;15.90;99.90;;;;;;5033564;28;19999;-71
2022/07/14 05:09:18;;;;;;;;;;;16.00;99.90;;;;;;5051592;28;19917;-72
2022/07/14 05:11:44;;;;;;;;;;;16.00;99.90;;;;;;5051339;28;19916;-73
2022/07/14 05:14:10;;;;;;;;;;;16.10;99.90;;;;;;5051526;28;19913;-71
2022/07/14 05:16:35;;;;;;;;;;;16.10;99.90;;;;;;5051364;28;19960;-71
2022/07/14 05:19:01;;;;;;;;;;;16.20;99.90;;;;;;5051491;28;19966;-72
2022/07/14 05:21:27;;;;;;;;;;;16.20;99.90;;;;;;5051652;28;19956;-72
2022/07/14 05:23:52;;;;;;;;;;;16.10;99.90;;;;;;5051661;28;20339;-73
2022/07/14 05:26:18;;;;;;;;;;;16.20;99.90;;;;;;5051249;28;19921;-72
2022/07/14 05:28:44;;;;;;;;;;;16.20;99.90;;;;;;5051524;28;20012;-71
2022/07/14 05:31:09;;;;;;;;;;;16.20;99.90;;;;;;5051145;28;19999;-71
2022/07/14 05:33:35;;;;;;;;;;;16.30;99.90;;;;;;5033771;28;19948;-71
2022/07/14 05:36:01;;;;;;;;;;;16.20;99.90;;;;;;5050928;28;19944;-71
2022/07/14 05:38:27;;;;;;;;;;;16.20;99.90;;;;;;5033022;28;19917;-72
2022/07/14 05:40:53;;;;;;;;;;;16.20;99.90;;;;;;5050717;28;19925;-72
2022/07/14 05:43:21;;;;;;;;;;;16.30;99.90;;;;;;5051368;28;20416;-72
2022/07/14 05:45:47;;;;;;;;;;;16.30;99.90;;;;;;5033134;28;19916;-72
2022/07/14 05:48:12;;;;;;;;;;;16.40;99.90;;;;;;5033343;28;19919;-72
2022/07/14 05:50:38;;;;;;;;;;;16.40;99.90;;;;;;5032918;28;20273;-71
2022/07/14 05:53:03;;;;;;;;;;;16.40;99.90;;;;;;5051264;28;19959;-71
2022/07/14 05:55:29;;;;;;;;;;;16.50;99.90;;;;;;5050630;28;19920;-71
2022/07/14 05:57:54;;;;;;;;;;;16.60;99.90;;;;;;5050412;28;19916;-71
2022/07/14 06:00:20;;;;;;;;;;;16.60;99.90;;;;;;5050553;28;20398;-71
2022/07/14 06:02:45;;;;;;;;;;;16.60;99.90;;;;;;5051091;28;19913;-72
2022/07/14 06:05:11;;;;;;;;;;;16.80;99.90;;;;;;5050681;28;20367;-72
2022/07/14 06:07:37;;;;;;;;;;;16.90;99.90;;;;;;5050762;28;19944;-72
2022/07/14 06:10:03;;;;;;;;;;;17.20;99.90;;;;;;5050882;28;20314;-73
2022/07/14 06:12:28;;;;;;;;;;;17.30;99.90;;;;;;5050309;28;19923;-73
2022/07/14 06:14:54;;;;;;;;;;;17.50;99.90;;;;;;5032549;28;19913;-72
2022/07/14 06:17:19;;;;;;;;;;;17.70;99.90;;;;;;5050585;28;20356;-72
2022/07/14 06:19:45;;;;;;;;;;;17.90;99.90;;;;;;5050405;28;19916;-71
2022/07/14 06:22:11;;;;;;;;;;;17.90;99.90;;;;;;5050546;28;20357;-71
2022/07/14 06:24:38;;;;;;;;;;;18.00;99.90;;;;;;5049983;28;19941;-72
2022/07/14 06:27:03;;;;;;;;;;;18.00;99.90;;;;;;5050241;28;19959;-73
2022/07/14 06:29:29;;;;;;;;;;;18.00;99.90;;;;;;5050037;28;20353;-72
2022/07/14 06:31:55;;;;;;;;;;;18.10;99.90;;;;;;5032443;28;19920;-72
2022/07/14 06:34:21;;;;;;;;;;;18.20;99.90;;;;;;5050107;28;20025;-72
2022/07/14 06:36:47;;;;;;;;;;;18.30;99.90;;;;;;5031914;28;20027;-72
2022/07/14 06:39:13;;;;;;;;;;;18.40;99.90;;;;;;5049855;28;19913;-72
2022/07/14 06:41:39;;;;;;;;;;;18.40;99.90;;;;;;5028566;28;19932;-73
2022/07/14 06:44:04;;;;;;;;;;;18.60;99.90;;;;;;5030427;28;19921;-72
2022/07/14 06:46:32;;;;;;;;;;;18.70;99.90;;;;;;5029092;28;19913;-72
2022/07/14 06:48:57;;;;;;;;;;;18.70;99.90;;;;;;5030398;28;19913;-70
2022/07/14 06:51:24;;;;;;;;;;;18.80;99.90;;;;;;5030437;28;19920;-72
2022/07/14 06:53:49;;;;;;;;;;;18.80;99.90;;;;;;5030528;28;19909;-71
2022/07/14 06:56:15;;;;;;;;;;;18.90;99.90;;;;;;5029941;28;20381;-66
2022/07/14 06:58:40;;;;;;;;;;;19.00;99.90;;;;;;5029715;28;19913;-64
2022/07/14 07:01:06;;;;;;;;;;;19.20;99.90;;;;;;5040165;28;19913;-64
2022/07/14 07:03:32;;;;;;;;;;;19.20;99.90;;;;;;5030176;28;19923;-63
2022/07/14 07:08:42;;;;;;;;;;;19.40;99.90;;;;;;5030333;28;20301;-64
2022/07/14 07:11:08;;;;;;;;;;;19.50;99.90;;;;;;5029793;28;19913;-63
2022/07/14 07:13:33;;;;;;;;;;;19.80;99.90;;;;;;5033241;28;19921;-65
2022/07/14 07:16:03;;;;;;;;;;;20.00;99.90;;;;;;5034202;28;19912;-64
2022/07/14 07:18:28;;;;;;;;;;;20.00;99.90;;;;;;5033277;28;19917;-66
2022/07/14 07:20:54;;;;;;;;;;;20.10;99.90;;;;;;5033380;28;19919;-65
2022/07/14 07:23:19;;;;;;;;;;;20.20;99.90;;;;;;5033782;28;19920;-65
2022/07/14 07:25:44;;;;;;;;;;;20.30;99.90;;;;;;5033153;28;20012;-66
2022/07/14 07:28:10;;;;;;;;;;;20.40;99.90;;;;;;5033488;28;19961;-66
2022/07/14 07:30:35;;;;;;;;;;;20.50;99.90;;;;;;5033492;28;19913;-65
2022/07/14 07:33:01;;;;;;;;;;;20.60;99.90;;;;;;5034011;28;19917;-65
2022/07/14 07:35:27;;;;;;;;;;;20.70;99.90;;;;;;5033144;28;20277;-66
2022/07/14 07:37:52;;;;;;;;;;;20.70;99.90;;;;;;5033019;28;19970;-67
2022/07/14 07:40:18;;;;;;;;;;;20.70;99.90;;;;;;5039878;28;19929;-67
2022/07/14 07:42:43;;;;;;;;;;;20.70;99.90;;;;;;5053506;28;20372;-66
2022/07/14 07:45:09;;;;;;;;;;;20.70;99.90;;;;;;5052845;28;19913;-66
2022/07/14 07:47:36;;;;;;;;;;;20.80;99.90;;;;;;5053196;28;20296;-66
2022/07/14 07:50:01;;;;;;;;;;;20.90;99.90;;;;;;5053550;28;19967;-65
2022/07/14 07:52:27;;;;;;;;;;;21.00;99.90;;;;;;5053251;28;19913;-65
2022/07/14 07:54:52;;;;;;;;;;;21.00;99.90;;;;;;5070310;28;19920;-64
2022/07/14 07:57:18;;;;;;;;;;;21.10;99.90;;;;;;5055035;28;19958;-64
2022/07/14 07:59:44;;;;;;;;;;;21.20;99.90;;;;;;5073124;28;19913;-64
2022/07/14 08:02:09;;;;;;;;;;;21.30;99.90;;;;;;5072713;28;19961;-65
2022/07/14 08:04:35;;;;;;;;;;;21.40;99.90;;;;;;5072453;28;19916;-65
2022/07/14 08:07:00;;;;;;;;;;;21.50;99.90;;;;;;5072100;28;19935;-64
2022/07/14 08:09:26;;;;;;;;;;;21.60;99.90;;;;;;5072376;28;19916;-64
2022/07/14 08:11:51;;;;;;;;;;;21.80;99.90;;;;;;5072459;28;19912;-64
2022/07/14 08:17:01;;;;;;;;;;;22.10;99.90;;;;;;5072624;28;19924;-63
2022/07/14 08:19:27;;;;;;;;;;;22.00;99.90;;;;;;5072677;28;19913;-64
2022/07/14 08:21:53;;;;;;;;;;;21.90;99.90;;;;;;5072490;28;20330;-64
2022/07/14 08:24:23;;;;;;;;;;;21.80;99.90;;;;;;5066387;28;20420;-63
2022/07/14 08:26:48;;;;;;;;;;;21.70;99.90;;;;;;5052193;28;20392;-63
2022/07/14 08:29:14;;;;;;;;;;;21.50;99.90;;;;;;5052142;28;19963;-63
2022/07/14 08:31:39;;;;;;;;;;;21.50;99.90;;;;;;5033922;28;20389;-64
2022/07/14 08:34:05;;;;;;;;;;;21.50;99.90;;;;;;5052053;28;20333;-64
2022/07/14 08:36:30;;;;;;;;;;;21.60;99.90;;;;;;5051913;28;19916;-65
2022/07/14 08:38:56;;;;;;;;;;;21.80;99.90;;;;;;5052439;28;19917;-66
2022/07/14 08:41:22;;;;;;;;;;;21.90;99.90;;;;;;5052189;28;20338;-64
2022/07/14 08:43:48;;;;;;;;;;;21.80;99.90;;;;;;5052293;28;20015;-63
2022/07/14 08:46:14;;;;;;;;;;;21.60;99.90;;;;;;5052318;28;19960;-63
2022/07/14 08:48:40;;;;;;;;;;;21.50;99.90;;;;;;5071841;28;20385;-64
2022/07/14 08:51:06;;;;;;;;;;;21.40;99.90;;;;;;5046624;28;20265;-64
2022/07/14 08:53:32;;;;;;;;;;;21.40;99.90;;;;;;5041164;28;19956;-64
2022/07/14 08:55:57;;;;;;;;;;;21.50;99.90;;;;;;5051619;28;19959;-64
2022/07/14 08:58:23;;;;;;;;;;;21.50;99.90;;;;;;5051993;28;19920;-63
2022/07/14 09:00:49;;;;;;;;;;;21.80;99.90;;;;;;5051670;28;19956;-64
2022/07/14 09:03:15;;;;;;;;;;;22.00;99.90;;;;;;5052071;28;20250;-63
2022/07/14 09:05:41;;;;;;;;;;;22.10;99.90;;;;;;5033327;28;20318;-64
2022/07/14 09:08:07;;;;;;;;;;;22.30;99.90;;;;;;5033449;28;19987;-64
2022/07/14 09:10:33;;;;;;;;;;;22.30;99.90;;;;;;5051276;28;19992;-65
2022/07/14 09:13:14;;;;;;;;;;;22.10;99.90;;;;;;5051874;28;20649;-64
2022/07/14 09:15:46;;;;;;;;;;;22.30;99.90;;;;;;5059446;28;19963;-65
2022/07/14 09:18:29;;;;;;;;;;;22.60;99.90;;;;;;5071333;28;20392;-65
2022/07/14 09:20:55;;;;;;;;;;;22.90;99.90;;;;;;5071003;28;19917;-64
2022/07/14 09:23:27;;;;;;;;;;;23.20;99.90;;;;;;5071252;28;19918;-65
2022/07/14 09:26:08;;;;;;;;;;;23.30;99.90;;;;;;5070868;28;19928;-64
2022/07/14 09:28:38;;;;;;;;;;;23.60;99.90;;;;;;5071271;28;19935;-63
2022/07/14 09:31:24;;;;;;;;;;;23.90;99.90;;;;;;5053173;28;19999;-63
2022/07/14 09:33:56;;;;;;;;;;;24.00;99.90;;;;;;5043500;28;19913;-63
2022/07/14 09:36:29;;;;;;;;;;;24.20;99.90;;;;;;5050925;28;19982;-62
2022/07/14 09:38:57;;;;;;;;;;;24.30;99.90;;;;;;5051640;28;19920;-64
2022/07/14 09:41:23;;;;;;;;;;;24.40;99.90;;;;;;5050722;28;19929;-63
2022/07/14 09:44:07;;;;;;;;;;;24.30;99.90;;;;;;5051288;28;19913;-63
2022/07/14 09:46:42;;;;;;;;;;;24.20;99.90;;;;;;5050520;28;19917;-63
2022/07/14 09:49:08;;;;;;;;;;;24.00;99.90;;;;;;5051560;28;19959;-63
2022/07/14 09:51:34;;;;;;;;;;;24.10;99.90;;;;;;5050730;28;19909;-65
2022/07/14 09:53:59;;;;;;;;;;;24.50;99.90;;;;;;5065378;28;19912;-65
2022/07/14 09:56:24;;;;;;;;;;;24.90;99.90;;;;;;5070382;28;20022;-61
2022/07/14 09:58:56;;;;;;;;;;;25.10;99.90;;;;;;5071248;28;19919;-66
2022/07/14 10:01:23;;;;;;;;;;;25.00;99.90;;;;;;5070541;28;19923;-64
2022/07/14 10:03:50;;;;;;;;;;;24.90;99.90;;;;;;5070742;28;19920;-62
2022/07/14 10:06:16;;;;;;;;;;;24.90;99.90;;;;;;5051281;28;19924;-63
2022/07/14 10:09:00;;;;;;;;;;;24.90;99.90;;;;;;5070882;28;19917;-63
2022/07/14 10:11:29;;;;;;;;;;;24.80;99.90;;;;;;5070738;28;20422;-63
2022/07/14 10:13:55;;;;;;;;;;;25.00;99.90;;;;;;5052811;28;19912;-64
2022/07/14 10:16:21;;;;;;;;;;;25.20;99.90;;;;;;5070449;28;19912;-64
2022/07/14 10:18:46;;;;;;;;;;;25.10;99.90;;;;;;5070532;28;20005;-63
2022/07/14 10:21:12;;;;;;;;;;;24.70;99.90;;;;;;5070771;28;19917;-63
2022/07/14 10:23:38;;;;;;;;;;;24.40;99.90;;;;;;5063012;28;20317;-64
2022/07/14 10:26:08;;;;;;;;;;;24.20;99.90;;;;;;5064295;28;20106;-64
2022/07/14 10:28:34;;;;;;;;;;;24.20;99.90;;;;;;5071021;28;20283;-63
2022/07/14 10:31:02;;;;;;;;;;;24.70;99.90;;;;;;5070234;28;19912;-64
2022/07/14 10:33:37;;;;;;;;;;;25.40;99.90;;;;;;5051840;28;19939;-67
2022/07/14 10:36:07;;;;;;;;;;;25.90;99.90;;;;;;5070267;28;20284;-65
2022/07/14 10:38:43;;;;;;;;;;;26.10;99.90;;;;;;5070631;28;20544;-66
2022/07/14 10:41:27;;;;;;;;;;;26.40;99.90;;;;;;5068963;28;19932;-66
2022/07/14 10:44:06;;;;;;;;;;;26.20;99.90;;;;;;5070397;28;20298;-66
2022/07/14 10:46:36;;;;;;;;;;;26.00;99.90;;;;;;5052164;28;19912;-65
2022/07/14 10:49:03;;;;;;;;;;;25.70;99.90;;;;;;5074292;28;19934;-65
2022/07/14 10:51:29;;;;;;;;;;;25.50;99.90;;;;;;5073927;28;19923;-67
2022/07/14 10:54:08;;;;;;;;;;;25.20;99.90;;;;;;5060110;28;19912;-66
2022/07/14 10:56:34;;;;;;;;;;;25.50;99.90;;;;;;5053874;28;20003;-65
2022/07/14 10:59:19;;;;;;;;;;;26.20;99.90;;;;;;5054461;28;19967;-66
2022/07/14 11:02:03;;;;;;;;;;;26.80;99.90;;;;;;5053785;28;19948;-65
2022/07/14 11:04:54;;;;;;;;;;;27.30;99.90;;;;;;5053658;28;19913;-65
2022/07/14 11:07:33;;;;;;;;;;;27.30;99.90;;;;;;5053633;28;20350;-65
2022/07/14 11:09:58;;;;;;;;;;;27.70;98.70;;;;;;5065562;28;20006;-66
2022/07/14 11:12:24;;;;;;;;;;;27.60;98.60;;;;;;5053804;28;19960;-64
2022/07/14 11:14:49;;;;;;;;;;;27.40;97.70;;;;;;5063790;28;19919;-65
2022/07/14 11:17:34;;;;;;;;;;;26.90;98.70;;;;;;5073670;28;20315;-65
2022/07/14 11:19:59;;;;;;;;;;;26.40;98.30;;;;;;5073938;28;19916;-65
2022/07/14 11:22:25;;;;;;;;;;;25.80;99.70;;;;;;5073737;28;19920;-65
2022/07/14 11:24:58;;;;;;;;;;;25.40;99.90;;;;;;5074098;28;19913;-64
2022/07/14 11:27:32;;;;;;;;;;;25.00;99.80;;;;;;5041756;28;19920;-66
2022/07/14 11:30:15;;;;;;;;;;;24.70;99.90;;;;;;5053419;28;20357;-64
2022/07/14 11:32:41;;;;;;;;;;;25.00;99.90;;;;;;5054145;28;19920;-64
2022/07/14 11:38:17;;;;;;;;;;;26.30;99.70;;;;;;5053191;28;20395;-65
2022/07/14 11:40:47;;;;;;;;;;;26.40;99.70;;;;;;5052410;28;19978;-64
2022/07/14 11:43:28;;;;;;;;;;;26.10;99.70;;;;;;5053527;28;19997;-64
2022/07/14 11:45:55;;;;;;;;;;;26.10;99.90;;;;;;5035601;28;20416;-65
2022/07/14 11:48:21;;;;;;;;;;;26.10;99.90;;;;;;5067593;28;19977;-64
2022/07/14 11:50:48;;;;;;;;;;;26.00;99.30;;;;;;5073083;28;20007;-64
2022/07/14 11:53:15;;;;;;;;;;;26.10;99.90;;;;;;5073378;28;19948;-65
2022/07/14 11:55:40;;;;;;;;;;;26.40;98.90;;;;;;5072909;28;19913;-66
2022/07/14 11:58:06;;;;;;;;;;;26.90;98.70;;;;;;5072315;28;19939;-64
2022/07/14 12:00:32;;;;;;;;;;;27.20;98.00;;;;;;5073115;28;19952;-64
2022/07/14 12:02:58;;;;;;;;;;;27.50;97.40;;;;;;5067041;28;19913;-64
2022/07/14 12:05:24;;;;;;;;;;;27.70;96.80;;;;;;5059411;28;19917;-65
2022/07/14 12:07:51;;;;;;;;;;;27.90;96.80;;;;;;5072719;28;19916;-65
2022/07/14 12:10:32;;;;;;;;;;;28.10;95.40;;;;;;5072527;28;19916;-65
2022/07/14 12:12:58;;;;;;;;;;;27.80;95.40;;;;;;5055926;28;19913;-65
2022/07/14 12:15:25;;;;;;;;;;;27.20;96.80;;;;;;5059936;28;19991;-66
2022/07/14 12:17:52;;;;;;;;;;;26.60;95.60;;;;;;5056562;28;19920;-65
2022/07/14 12:20:17;;;;;;;;;;;26.10;96.40;;;;;;5054351;28;19913;-66
2022/07/14 12:22:44;;;;;;;;;;;25.70;97.30;;;;;;5063805;28;19962;-66
2022/07/14 12:25:25;;;;;;;;;;;25.40;98.10;;;;;;5052735;28;19921;-65
2022/07/14 12:27:51;;;;;;;;;;;25.30;98.00;;;;;;5052187;28;20043;-65
2022/07/14 12:30:16;;;;;;;;;;;25.20;97.40;;;;;;5052296;28;20003;-65
2022/07/14 12:32:42;;;;;;;;;;;25.50;98.00;;;;;;5052167;28;19917;-65
2022/07/14 12:35:07;;;;;;;;;;;25.90;97.90;;;;;;5052203;28;19948;-65
2022/07/14 12:37:33;;;;;;;;;;;26.30;96.00;;;;;;5052258;28;19921;-66
2022/07/14 12:39:59;;;;;;;;;;;26.70;96.40;;;;;;5052238;28;19925;-66
2022/07/14 12:42:24;;;;;;;;;;;26.60;93.60;;;;;;5051912;28;19982;-66
2022/07/14 12:44:57;;;;;;;;;;;26.60;93.20;;;;;;5033857;28;19912;-66
2022/07/14 12:47:23;;;;;;;;;;;26.50;93.30;;;;;;5051986;28;19924;-66
2022/07/14 12:49:49;;;;;;;;;;;26.30;92.90;;;;;;5033851;28;20254;-65
2022/07/14 12:52:15;;;;;;;;;;;26.00;93.70;;;;;;5051497;28;19962;-65
2022/07/14 12:54:41;;;;;;;;;;;26.00;93.50;;;;;;5033579;28;19959;-64
2022/07/14 12:57:16;;;;;;;;;;;25.80;93.60;;;;;;5062934;28;19960;-66
2022/07/14 12:59:42;;;;;;;;;;;25.50;93.50;;;;;;5053455;28;19936;-66
2022/07/14 13:02:09;;;;;;;;;;;25.50;94.00;;;;;;5071631;28;20428;-66
2022/07/14 13:04:34;;;;;;;;;;;25.60;95.00;;;;;;5071321;28;20297;-67
2022/07/14 13:07:01;;;;;;;;;;;25.90;95.20;;;;;;5055356;28;19939;-66
2022/07/14 13:09:27;;;;;;;;;;;26.00;92.90;;;;;;5050824;28;20248;-65
2022/07/14 13:11:54;;;;;;;;;;;26.10;92.60;;;;;;5051376;28;19912;-65
2022/07/14 13:14:20;;;;;;;;;;;26.00;92.20;;;;;;5052405;28;19913;-65
2022/07/14 13:16:46;;;;;;;;;;;25.90;91.90;;;;;;5051712;28;20364;-65
2022/07/14 13:19:24;;;;;;;;;;;25.70;92.60;;;;;;5051443;28;19912;-65
2022/07/14 13:21:49;;;;;;;;;;;25.70;92.60;;;;;;5051738;28;20272;-66
2022/07/14 13:24:16;;;;;;;;;;;25.70;92.80;;;;;;5051387;28;19912;-66
2022/07/14 13:26:42;;;;;;;;;;;25.70;91.90;;;;;;5051229;28;19959;-65
2022/07/14 13:29:07;;;;;;;;;;;25.70;92.10;;;;;;5051102;28;20009;-64
2022/07/14 13:31:33;;;;;;;;;;;25.60;92.80;;;;;;5051835;28;19932;-65
2022/07/14 13:34:00;;;;;;;;;;;25.60;91.40;;;;;;5050898;28;19916;-65
2022/07/14 13:36:26;;;;;;;;;;;25.70;90.50;;;;;;5051005;28;19919;-65
2022/07/14 13:38:51;;;;;;;;;;;25.70;91.80;;;;;;5033279;28;19916;-65
2022/07/14 13:41:18;;;;;;;;;;;25.80;90.60;;;;;;5050811;28;19925;-65
2022/07/14 13:43:44;;;;;;;;;;;25.70;90.30;;;;;;5051151;28;19959;-65
2022/07/14 13:46:10;;;;;;;;;;;25.70;88.70;;;;;;5050690;28;19944;-66
2022/07/14 13:48:36;;;;;;;;;;;25.70;89.20;;;;;;5052024;28;19917;-65
2022/07/14 13:53:46;;;;;;;;;;;25.80;88.60;;;;;;5051372;28;20257;-65
2022/07/14 13:56:11;;;;;;;;;;;25.90;89.50;;;;;;5050502;28;19909;-65
2022/07/14 13:58:37;;;;;;;;;;;25.90;89.60;;;;;;5051255;28;19924;-65
2022/07/14 14:01:02;;;;;;;;;;;25.90;90.10;;;;;;5051066;28;20272;-71
2022/07/14 14:03:28;;;;;;;;;;;25.80;90.70;;;;;;5050397;28;20012;-71
2022/07/14 14:06:14;;;;;;;;;;;25.70;89.20;;;;;;5049033;28;20439;-71
2022/07/14 14:08:40;;;;;;;;;;;25.60;89.60;;;;;;5048496;28;20003;-71
2022/07/14 14:11:05;;;;;;;;;;;25.50;90.30;;;;;;5031036;28;19909;-71
2022/07/14 14:13:33;;;;;;;;;;;25.50;91.30;;;;;;5048687;28;20387;-72
2022/07/14 14:15:59;;;;;;;;;;;25.50;91.20;;;;;;5048874;28;19913;-71
2022/07/14 14:18:25;;;;;;;;;;;25.50;91.60;;;;;;5049659;28;20253;-71
2022/07/14 14:20:50;;;;;;;;;;;25.60;90.80;;;;;;5049293;28;19909;-72
2022/07/14 14:23:16;;;;;;;;;;;25.60;91.10;;;;;;5049256;28;19917;-72
2022/07/14 14:25:42;;;;;;;;;;;25.70;91.20;;;;;;5050057;28;19916;-72
2022/07/14 14:28:08;;;;;;;;;;;25.70;91.40;;;;;;5050609;28;19959;-71
2022/07/14 14:30:34;;;;;;;;;;;25.60;90.20;;;;;;5049765;28;20373;-71
2022/07/14 14:33:00;;;;;;;;;;;25.70;90.80;;;;;;5050594;28;20284;-71
2022/07/14 14:35:26;;;;;;;;;;;25.60;90.60;;;;;;5049631;28;20133;-71